Terminal Aerodrome Forecast
Issued by NWS

Home | Current Version | Previous Version | Text Only | Print | Product List | Glossary On
Versions: 1 2 3 4 5 6 7 8 9 10 11 12 13 14 15 16 17 18 19 20 21 22 23 24 25 26 27 28 29 30 31
000
FTUS41 KOKX 170524
TAFSWF
TAF
KSWF 170524Z 1706/1812 VRB03KT P6SM SCT070
     FM170800 VRB02KT 3SM BR SKC
     FM171200 VRB03KT P6SM FEW250
     FM171800 24006KT P6SM FEW250
     FM180000 18005KT P6SM SCT040 BKN150
     FM180600 15003KT 4SM BR SCT040 BKN100
      AMD NOT SKED=

USA.gov is the U.S. government's official web portal to all federal, state and local government web resources and services.